createdAt,value
2018-02-21T15:14:43.893Z,-0.85
2018-02-21T15:15:44.126Z,-0.69
2018-02-21T15:16:44.125Z,-0.73
2018-02-21T15:17:44.140Z,-0.62
2018-02-21T15:18:44.074Z,-0.66
2018-02-21T15:19:43.792Z,-0.49
2018-02-21T15:20:44.036Z,-0.69
2018-02-21T15:21:43.499Z,-0.72
2018-02-21T15:22:43.994Z,-0.64
2018-02-21T15:23:43.722Z,-0.64
2018-02-21T15:24:43.953Z,-0.69
2018-02-21T15:25:43.681Z,-0.72
2018-02-21T15:26:43.917Z,-0.72
2018-02-21T15:27:43.902Z,-0.82
2018-02-21T15:28:43.624Z,-0.85
2018-02-21T15:29:43.608Z,-0.85
2018-02-21T15:30:43.586Z,-0.85
2018-02-21T15:31:43.629Z,-0.98
2018-02-21T15:32:43.548Z,-0.93
2018-02-21T15:33:43.788Z,-0.96
2018-02-21T15:34:43.767Z,-1.09
2018-02-21T15:35:43.745Z,-1.25
2018-02-21T15:36:43.469Z,-1.21
2018-02-21T15:37:43.510Z,-1.31
2018-02-21T15:38:43.559Z,-1.35
2018-02-21T15:39:43.668Z,-1.38
2018-02-21T15:40:43.649Z,-1.45
2018-02-21T15:41:43.636Z,-1.52
2018-02-21T15:42:43.096Z,-1.49
2018-02-21T15:43:43.590Z,-1.66
2018-02-21T15:44:43.576Z,-1.42
2018-02-21T15:45:43.298Z,-1.68
2018-02-21T15:46:43.529Z,-1.63
2018-02-21T15:47:43.254Z,-1.55
2018-02-21T15:48:43.243Z,-1.61
2018-02-21T15:49:43.481Z,-1.55
2018-02-21T15:50:43.460Z,-1.48
2018-02-21T15:51:43.174Z,-1.52
2018-02-21T15:52:43.417Z,-1.56
2018-02-21T15:53:43.140Z,-1.48
2018-02-21T15:54:42.861Z,-1.31
2018-02-21T15:55:43.364Z,-0.54
2018-02-21T15:56:43.340Z,-0.79
2018-02-21T15:57:43.059Z,-0.84
2018-02-21T15:58:43.297Z,-0.59
2018-02-21T15:59:43.478Z,-0.67
2018-02-21T16:00:43.259Z,-0.8
2018-02-21T16:01:42.978Z,-0.82
2018-02-21T16:02:42.959Z,-0.99
2018-02-21T16:03:43.197Z,-1.07
2018-02-21T16:04:43.187Z,-1.14
2018-02-21T16:05:42.899Z,-1.16
2018-02-21T16:06:43.149Z,-1.24
2018-02-21T16:07:43.143Z,-1.4
2018-02-21T16:08:42.590Z,-1.43
2018-02-21T16:09:42.827Z,-1.43
2018-02-21T16:10:43.061Z,-1.55
2018-02-21T16:11:43.044Z,-1.55
2018-02-21T16:12:42.763Z,-1.58
2018-02-21T16:13:42.764Z,-1.71
2018-02-21T16:14:42.990Z,-1.7
2018-02-21T16:15:42.962Z,-1.84
2018-02-21T16:16:42.432Z,-1.82
2018-02-21T16:17:42.673Z,-1.96
2018-02-21T16:18:42.649Z,-2.02
2018-02-21T16:19:42.886Z,-2.09
2018-02-21T16:20:42.915Z,-2.14
2018-02-21T16:21:42.334Z,-2.15
2018-02-21T16:22:42.318Z,-2.18
2018-02-21T16:23:42.820Z,-2.17
2018-02-21T16:24:42.793Z,-2.23
2018-02-21T16:25:42.513Z,-2.21
2018-02-21T16:26:42.741Z,-2.28
2018-02-21T16:27:42.213Z,-2.17
2018-02-21T16:28:42.709Z,-2.23
2018-02-21T16:29:42.429Z,-2.21
2018-02-21T16:30:42.413Z,-2.17
2018-02-21T16:31:42.401Z,-2.23
2018-02-21T16:32:42.629Z,-2.09
2018-02-21T16:33:42.352Z,-2.09
2018-02-21T16:34:42.336Z,-2.07
2018-02-21T16:35:42.310Z,-2.05
2018-02-21T16:36:42.559Z,-2.06
2018-02-21T16:37:42.534Z,-2.09
2018-02-21T16:38:42.260Z,-1.99
2018-02-21T16:39:42.233Z,-1.99
2018-02-21T16:40:42.213Z,-2
2018-02-21T16:41:42.191Z,-2
2018-02-21T16:42:42.167Z,-2
2018-02-21T16:43:42.151Z,-1.97
2018-02-21T16:44:42.131Z,-1.96
2018-02-21T16:45:42.116Z,-1.81
2018-02-21T16:46:42.347Z,-1.85
2018-02-21T16:47:42.327Z,-1.91
2018-02-21T16:48:42.309Z,-1.86
2018-02-21T16:49:42.295Z,-1.85
2018-02-21T16:50:42.015Z,-1.79
2018-02-21T16:51:41.995Z,-1.81
2018-02-21T16:52:42.231Z,-1.85
2018-02-21T16:53:42.215Z,-1.84
2018-02-21T16:54:41.676Z,-1.82
2018-02-21T16:55:41.657Z,-1.79
2018-02-21T16:56:41.895Z,-1.84
2018-02-21T16:57:42.131Z,-1.82
2018-02-21T16:58:41.850Z,-1.81
2018-02-21T16:59:41.834Z,-1.82
2018-02-21T17:00:42.163Z,-1.76
2018-02-21T17:01:41.539Z,-1.73
2018-02-21T17:02:41.519Z,-1.85
2018-02-21T17:03:42.012Z,-1.68
2018-02-21T17:04:41.997Z,-1.74
2018-02-21T17:05:41.972Z,-1.7
2018-02-21T17:06:41.697Z,-1.81
2018-02-21T17:07:41.674Z,-1.74
2018-02-21T17:08:41.660Z,-1.82
2018-02-21T17:09:41.632Z,-1.7
2018-02-21T17:10:41.881Z,-1.73
2018-02-21T17:11:41.595Z,-1.74
2018-02-21T17:12:41.834Z,-1.73
2018-02-21T17:13:41.554Z,-1.71
2018-02-21T17:14:41.795Z,-1.7
2018-02-21T17:15:41.768Z,-1.68
2018-02-21T17:16:41.752Z,-1.68
2018-02-21T17:17:41.737Z,-1.71
2018-02-21T17:18:41.459Z,-1.79
2018-02-21T17:19:41.704Z,-1.7
2018-02-21T17:20:41.715Z,-1.74
2018-02-21T17:21:41.391Z,-1.71
2018-02-21T17:22:41.657Z,-1.74
2018-02-21T17:23:41.613Z,-1.7
2018-02-21T17:24:41.596Z,-1.68
2018-02-21T17:25:41.579Z,-1.76
2018-02-21T17:26:41.556Z,-1.7
2018-02-21T17:27:41.530Z,-1.7
2018-02-21T17:28:41.523Z,-1.73
2018-02-21T17:29:41.492Z,-1.67
2018-02-21T17:30:41.480Z,-1.74
2018-02-21T17:31:41.480Z,-1.73
2018-02-21T17:32:41.581Z,-1.71
2018-02-21T17:33:41.152Z,-1.67
2018-02-21T17:34:41.138Z,-1.74
2018-02-21T17:35:41.374Z,-1.71
2018-02-21T17:36:41.101Z,-1.68
2018-02-21T17:37:41.078Z,-1.71
2018-02-21T17:38:41.057Z,-1.74
2018-02-21T17:39:41.037Z,-1.7
2018-02-21T17:40:41.268Z,-1.73
2018-02-21T17:41:41.001Z,-1.67
2018-02-21T17:42:41.233Z,-1.7
2018-02-21T17:43:40.958Z,-1.71
2018-02-21T17:44:41.195Z,-1.71
2018-02-21T17:45:40.917Z,-1.74
2018-02-21T17:46:40.896Z,-1.73
2018-02-21T17:47:41.132Z,-1.68
2018-02-21T17:48:40.862Z,-1.7
2018-02-21T17:49:40.845Z,-1.71
2018-02-21T17:50:40.561Z,-1.68
2018-02-21T17:51:41.049Z,-1.71
2018-02-21T17:52:41.036Z,-1.71
2018-02-21T17:53:40.761Z,-1.71
2018-02-21T17:54:40.739Z,-1.79
2018-02-21T17:55:40.980Z,-1.74
2018-02-21T17:56:40.959Z,-1.76
2018-02-21T17:57:40.676Z,-1.82
2018-02-21T17:58:40.917Z,-1.84
2018-02-21T17:59:40.641Z,-1.85
2018-02-21T18:00:40.884Z,-1.88
2018-02-21T18:01:40.347Z,-1.84
2018-02-21T18:02:40.581Z,-1.92
2018-02-21T18:03:40.816Z,-1.99
2018-02-21T18:04:40.808Z,-2.02
2018-02-21T18:05:40.782Z,-2.07
2018-02-21T18:06:40.759Z,-2.14
2018-02-21T18:07:40.225Z,-2.18
2018-02-21T18:08:40.463Z,-2.21
2018-02-21T18:09:40.704Z,-2.24
2018-02-21T18:10:40.420Z,-2.36
2018-02-21T18:11:40.398Z,-2.34
2018-02-21T18:12:40.122Z,-2.44
2018-02-21T18:13:40.621Z,-2.37
2018-02-21T18:14:40.614Z,-2.44
2018-02-21T18:15:40.586Z,-2.47
2018-02-21T18:16:40.297Z,-2.53
2018-02-21T18:17:40.389Z,-2.55
2018-02-21T18:18:40.010Z,-2.65
2018-02-21T18:19:39.988Z,-2.61
2018-02-21T18:20:40.226Z,-2.62
2018-02-21T18:21:40.194Z,-2.72
2018-02-21T18:22:40.184Z,-2.78
2018-02-21T18:23:40.421Z,-2.86
2018-02-21T18:24:40.402Z,-2.85
2018-02-21T18:25:39.863Z,-2.82
2018-02-21T18:26:39.844Z,-2.86
2018-02-21T18:27:39.822Z,-2.88
2018-02-21T18:28:40.065Z,-2.96
2018-02-21T18:29:39.780Z,-3.04
2018-02-21T18:30:40.276Z,-3.04
2018-02-21T18:31:40.254Z,-3.01
2018-02-21T18:32:39.981Z,-3.18
2018-02-21T18:33:39.954Z,-3.18
2018-02-21T18:34:39.945Z,-3.14
2018-02-21T18:35:39.917Z,-3.3
2018-02-21T18:36:39.902Z,-3.29
2018-02-21T18:37:40.134Z,-3.35
2018-02-21T18:38:39.607Z,-3.42
2018-02-21T18:39:40.094Z,-3.47
2018-02-21T18:40:39.558Z,-3.48
2018-02-21T18:41:40.060Z,-3.53
2018-02-21T18:42:40.037Z,-3.47
2018-02-21T18:43:40.008Z,-3.61
2018-02-21T18:44:39.999Z,-3.71
2018-02-21T18:45:39.969Z,-3.69
2018-02-21T18:46:39.694Z,-3.75
2018-02-21T18:47:39.931Z,-3.77
2018-02-21T18:48:39.904Z,-3.8
2018-02-21T18:49:39.892Z,-3.82
2018-02-21T18:50:39.353Z,-3.87
2018-02-21T18:51:39.847Z,-3.9
2018-02-21T18:52:39.314Z,-3.93
2018-02-21T18:53:39.808Z,-3.96
2018-02-21T18:54:39.529Z,-4.06
2018-02-21T18:55:39.511Z,-4
2018-02-21T18:56:39.740Z,-4.08
2018-02-21T18:57:39.468Z,-4.16
2018-02-21T18:58:39.449Z,-4.11
2018-02-21T18:59:39.681Z,-4.18
2018-02-21T19:00:39.403Z,-4.16
2018-02-21T19:01:39.642Z,-4.15
2018-02-21T19:02:39.368Z,-4.22
2018-02-21T19:03:39.345Z,-4.3
2018-02-21T19:04:39.583Z,-4.33
2018-02-21T19:05:39.302Z,-4.37
2018-02-21T19:06:39.277Z,-4.5
2018-02-21T19:07:39.258Z,-4.37
2018-02-21T19:08:39.243Z,-4.41
2018-02-21T19:09:39.217Z,-4.45
2018-02-21T19:10:38.941Z,-4.51
2018-02-21T19:11:39.429Z,-4.53
2018-02-21T19:12:39.423Z,-4.59
2018-02-21T19:13:39.399Z,-4.62
2018-02-21T19:14:39.116Z,-4.63
2018-02-21T19:15:39.092Z,-4.63
2018-02-21T19:16:39.333Z,-4.63
2018-02-21T19:17:39.308Z,-4.63
2018-02-21T19:18:39.290Z,-4.69
2018-02-21T19:19:39.072Z,-4.62
2018-02-21T19:20:38.987Z,-4.75
2018-02-21T19:21:39.220Z,-4.68
2018-02-21T19:22:39.207Z,-4.73
2018-02-21T19:23:39.187Z,-4.75
2018-02-21T19:24:38.909Z,-4.9
2018-02-21T19:25:38.627Z,-4.9
2018-02-21T19:26:38.860Z,-4.87
2018-02-21T19:27:38.840Z,-4.87
2018-02-21T19:28:38.822Z,-4.9
2018-02-21T19:29:39.056Z,-4.84
2018-02-21T19:30:38.777Z,-4.92
2018-02-21T19:31:38.504Z,-4.93
2018-02-21T19:32:38.991Z,-4.9
2018-02-21T19:33:38.716Z,-5.01
2018-02-21T19:34:38.698Z,-5.05
2018-02-21T19:35:38.675Z,-5.1
2018-02-21T19:36:38.653Z,-5.02
2018-02-21T19:37:38.375Z,-5.08
2018-02-21T19:38:38.870Z,-5.08
2018-02-21T19:39:38.587Z,-5.2
2018-02-21T19:40:38.824Z,-5.12
2018-02-21T19:41:38.806Z,-5.23
2018-02-21T19:42:38.785Z,-5.27
2018-02-21T19:43:38.509Z,-5.23
2018-02-21T19:44:38.228Z,-5.2
2018-02-21T19:45:38.712Z,-5.22
2018-02-21T19:46:38.439Z,-5.26
2018-02-21T19:47:38.747Z,-5.31
2018-02-21T19:48:38.140Z,-5.31
2018-02-21T19:49:38.374Z,-5.4
2018-02-21T19:50:38.611Z,-5.35
2018-02-21T19:51:38.592Z,-5.38
2018-02-21T19:52:38.332Z,-5.4
2018-02-21T19:53:38.550Z,-5.48
2018-02-21T19:54:38.269Z,-5.48
2018-02-21T19:55:38.503Z,-5.45
2018-02-21T19:56:38.231Z,-5.52
2018-02-21T19:57:37.948Z,-5.55
2018-02-21T19:58:38.178Z,-5.5
2018-02-21T19:59:38.162Z,-5.56
2018-02-21T20:00:38.401Z,-5.66
2018-02-21T20:01:38.119Z,-5.6
2018-02-21T20:02:38.356Z,-5.62
2018-02-21T20:03:37.823Z,-5.69
2018-02-21T20:04:38.311Z,-5.65
2018-02-21T20:05:38.302Z,-5.65
2018-02-21T20:06:38.275Z,-5.66
2018-02-21T20:07:38.013Z,-5.68
2018-02-21T20:08:37.971Z,-5.62
2018-02-21T20:09:38.205Z,-5.65
2018-02-21T20:10:38.186Z,-5.74
2018-02-21T20:11:37.909Z,-5.77
2018-02-21T20:12:37.884Z,-5.77
2018-02-21T20:13:38.178Z,-5.68
2018-02-21T20:14:38.101Z,-5.69
2018-02-21T20:15:38.079Z,-5.73
2018-02-21T20:16:38.059Z,-5.8
2018-02-21T20:17:38.034Z,-5.7
2018-02-21T20:18:38.007Z,-5.74
2018-02-21T20:19:37.737Z,-5.76
2018-02-21T20:20:37.965Z,-5.84
2018-02-21T20:21:37.945Z,-5.79
2018-02-21T20:22:37.921Z,-5.76
2018-02-21T20:23:37.901Z,-5.87
2018-02-21T20:24:37.879Z,-5.84
2018-02-21T20:25:37.605Z,-5.91
2018-02-21T20:26:37.841Z,-5.87
2018-02-21T20:27:37.561Z,-5.86
2018-02-21T20:28:37.795Z,-5.89
2018-02-21T20:29:37.776Z,-5.89
2018-02-21T20:30:37.503Z,-5.92
2018-02-21T20:31:37.474Z,-5.91
2018-02-21T20:32:37.702Z,-5.89
2018-02-21T20:33:37.687Z,-5.99
2018-02-21T20:34:37.659Z,-5.97
2018-02-21T20:35:37.646Z,-5.92
2018-02-21T20:36:37.626Z,-6.07
2018-02-21T20:37:37.599Z,-6.01
2018-02-21T20:38:37.581Z,-5.99
2018-02-21T20:39:37.563Z,-5.99
2018-02-21T20:40:37.532Z,-6.08
2018-02-21T20:41:37.514Z,-6.04
2018-02-21T20:42:37.488Z,-6.08
2018-02-21T20:43:36.983Z,-6.1
2018-02-21T20:44:37.464Z,-6.07
2018-02-21T20:45:37.167Z,-6.12
2018-02-21T20:46:37.398Z,-6.16
2018-02-21T20:47:37.389Z,-6.18
2018-02-21T20:48:37.363Z,-6.18
2018-02-21T20:49:36.819Z,-6.18
2018-02-21T20:50:37.052Z,-6.2
2018-02-21T20:51:36.776Z,-6.2
2018-02-21T20:52:37.014Z,-6.23
2018-02-21T20:53:37.002Z,-6.26
2018-02-21T20:54:36.710Z,-6.23
2018-02-21T20:55:36.944Z,-6.28
2018-02-21T20:56:36.927Z,-6.31
2018-02-21T20:57:37.157Z,-6.26
2018-02-21T20:58:36.626Z,-6.26
2018-02-21T20:59:36.859Z,-6.4
2018-02-21T21:00:36.840Z,-6.31
2018-02-21T21:01:36.560Z,-6.26
2018-02-21T21:02:36.789Z,-6.37
2018-02-21T21:03:36.773Z,-6.31
2018-02-21T21:04:37.009Z,-6.4
2018-02-21T21:05:36.988Z,-6.4
2018-02-21T21:06:36.454Z,-6.36
2018-02-21T21:07:36.682Z,-6.37
2018-02-21T21:08:36.922Z,-6.38
2018-02-21T21:09:36.636Z,-6.34
2018-02-21T21:10:36.364Z,-6.38
2018-02-21T21:11:36.601Z,-6.4
2018-02-21T21:12:36.825Z,-6.4
2018-02-21T21:13:36.553Z,-6.54
2018-02-21T21:14:36.528Z,-6.49
2018-02-21T21:15:36.767Z,-6.58
2018-02-21T21:16:36.748Z,-6.58
2018-02-21T21:17:36.469Z,-6.55
2018-02-21T21:18:36.441Z,-6.55
2018-02-21T21:19:36.414Z,-6.58
2018-02-21T21:20:36.139Z,-6.54
2018-02-21T21:21:36.657Z,-6.55
2018-02-21T21:22:36.605Z,-6.62
2018-02-21T21:23:36.592Z,-6.62
2018-02-21T21:24:36.312Z,-6.63
2018-02-21T21:25:36.547Z,-6.59
2018-02-21T21:26:36.266Z,-6.65
2018-02-21T21:27:36.503Z,-6.65
2018-02-21T21:28:35.967Z,-6.67
2018-02-21T21:29:35.947Z,-6.7
2018-02-21T21:30:36.180Z,-6.68
2018-02-21T21:31:36.199Z,-6.67
2018-02-21T21:32:36.389Z,-6.65
2018-02-21T21:33:35.856Z,-6.65
2018-02-21T21:34:36.340Z,-6.68
2018-02-21T21:35:36.322Z,-6.65
2018-02-21T21:36:36.300Z,-6.7
2018-02-21T21:37:36.274Z,-6.71
2018-02-21T21:38:36.254Z,-6.71
2018-02-21T21:39:36.236Z,-6.76
2018-02-21T21:40:35.959Z,-6.77
2018-02-21T21:41:35.674Z,-6.77
2018-02-21T21:42:35.650Z,-6.74
2018-02-21T21:43:36.145Z,-6.81
2018-02-21T21:44:35.860Z,-6.81
2018-02-21T21:45:36.098Z,-6.77
2018-02-21T21:46:36.079Z,-6.8
2018-02-21T21:47:35.799Z,-6.88
2018-02-21T21:48:36.037Z,-6.91
2018-02-21T21:49:37.818Z,-6.95
2018-02-21T21:50:35.731Z,-6.98
2018-02-21T21:51:35.455Z,-6.81
2018-02-21T21:52:35.693Z,-6.89
2018-02-21T21:53:35.667Z,-6.91
2018-02-21T21:54:35.645Z,-6.91
2018-02-21T21:55:35.365Z,-6.98
2018-02-21T21:56:35.852Z,-6.95
2018-02-21T21:57:35.581Z,-6.92
2018-02-21T21:58:35.808Z,-7.07
2018-02-21T21:59:35.788Z,-7.01
2018-02-21T22:00:35.510Z,-7.01
2018-02-21T22:01:35.232Z,-7.09
2018-02-21T22:02:35.462Z,-7.13
2018-02-21T22:03:35.705Z,-7.05
2018-02-21T22:04:35.782Z,-7.16
2018-02-21T22:05:35.661Z,-7.13
2018-02-21T22:06:35.627Z,-7.17
2018-02-21T22:07:35.091Z,-7.12
2018-02-21T22:08:35.334Z,-7.2
2018-02-21T22:09:35.565Z,-7.19
2018-02-21T22:10:35.542Z,-7.2
2018-02-21T22:11:35.528Z,-7.19
2018-02-21T22:12:35.240Z,-7.16
2018-02-21T22:13:35.220Z,-7.17
2018-02-21T22:14:35.197Z,-7.27
2018-02-21T22:15:35.430Z,-7.27
2018-02-21T22:16:35.152Z,-7.28
2018-02-21T22:17:35.384Z,-7.3
2018-02-21T22:18:35.362Z,-7.37
2018-02-21T22:19:35.084Z,-7.33
2018-02-21T22:20:35.541Z,-7.31
2018-02-21T22:21:35.038Z,-7.4
2018-02-21T22:22:35.014Z,-7.33
2018-02-21T22:23:34.994Z,-7.33
2018-02-21T22:24:34.718Z,-7.49
2018-02-21T22:25:35.205Z,-7.47
2018-02-21T22:26:35.181Z,-7.48
2018-02-21T22:27:35.157Z,-7.48
2018-02-21T22:28:35.135Z,-7.48
2018-02-21T22:29:34.597Z,-7.49
2018-02-21T22:30:34.837Z,-7.38
2018-02-21T22:31:34.558Z,-7.44
2018-02-21T22:32:35.054Z,-7.48
2018-02-21T22:33:35.019Z,-7.44
2018-02-21T22:34:35.023Z,-7.42
2018-02-21T22:35:34.978Z,-7.44
2018-02-21T22:36:34.705Z,-7.44
2018-02-21T22:37:34.681Z,-7.44
2018-02-21T22:38:34.658Z,-7.48
2018-02-21T22:39:34.632Z,-7.44
2018-02-21T22:40:34.603Z,-7.45
2018-02-21T22:41:34.845Z,-7.45
2018-02-21T22:42:34.560Z,-7.48
2018-02-21T22:43:34.282Z,-7.48
2018-02-21T22:44:34.518Z,-7.44
2018-02-21T22:45:34.500Z,-7.45
2018-02-21T22:46:34.470Z,-7.47
2018-02-21T22:47:34.445Z,-7.51
2018-02-21T22:48:34.434Z,-7.54
2018-02-21T22:49:34.404Z,-7.45
2018-02-21T22:50:34.384Z,-7.45
2018-02-21T22:51:34.098Z,-7.54
2018-02-21T22:52:34.597Z,-7.52
2018-02-21T22:53:34.318Z,-7.52
2018-02-21T22:54:34.294Z,-7.54
2018-02-21T22:55:34.526Z,-7.65
2018-02-21T22:56:34.514Z,-7.58
2018-02-21T22:57:34.228Z,-7.63
2018-02-21T22:58:34.208Z,-7.69
2018-02-21T22:59:34.178Z,-7.65
2018-02-21T23:00:34.155Z,-7.59
2018-02-21T23:01:34.129Z,-7.56
2018-02-21T23:02:34.375Z,-7.62
2018-02-21T23:03:34.092Z,-7.63
2018-02-21T23:04:34.062Z,-7.7
2018-02-21T23:05:34.038Z,-7.56
2018-02-21T23:06:34.278Z,-7.56
2018-02-21T23:07:34.255Z,-7.65
2018-02-21T23:08:33.972Z,-7.72
2018-02-21T23:09:33.695Z,-7.66
2018-02-21T23:10:33.926Z,-7.63
2018-02-21T23:11:34.164Z,-7.73
2018-02-21T23:12:34.152Z,-7.56
2018-02-21T23:13:34.121Z,-7.7
2018-02-21T23:14:33.841Z,-7.65
2018-02-21T23:15:33.559Z,-7.72
2018-02-21T23:16:33.789Z,-7.55
2018-02-21T23:17:33.508Z,-7.54
2018-02-21T23:18:34.026Z,-7.63
2018-02-21T23:19:33.464Z,-7.62
2018-02-21T23:20:33.984Z,-7.56
2018-02-21T23:21:33.936Z,-7.58
2018-02-21T23:22:33.909Z,-7.65
2018-02-21T23:23:33.633Z,-7.65
2018-02-21T23:24:33.868Z,-7.66
2018-02-21T23:25:33.589Z,-7.76
2018-02-21T23:26:33.818Z,-7.67
2018-02-21T23:27:33.800Z,-7.72
2018-02-21T23:28:33.516Z,-7.69
2018-02-21T23:29:33.752Z,-7.83
2018-02-21T23:30:33.730Z,-7.72
2018-02-21T23:31:33.704Z,-7.73
2018-02-21T23:32:33.427Z,-7.8
2018-02-21T23:33:33.661Z,-7.8
2018-02-21T23:34:33.378Z,-7.81
2018-02-21T23:35:33.612Z,-7.75
2018-02-21T23:36:33.080Z,-7.77
2018-02-21T23:37:33.309Z,-7.81
2018-02-21T23:38:33.569Z,-7.69
2018-02-21T23:39:33.526Z,-7.8
2018-02-21T23:40:33.502Z,-7.73
2018-02-21T23:41:33.482Z,-7.72
2018-02-21T23:42:33.200Z,-7.76
2018-02-21T23:43:33.432Z,-7.8
2018-02-21T23:44:32.896Z,-7.75
2018-02-21T23:45:32.876Z,-7.7
2018-02-21T23:46:33.105Z,-7.7
2018-02-21T23:47:33.344Z,-7.8
2018-02-21T23:48:33.325Z,-7.84
2018-02-21T23:49:33.301Z,-7.9
2018-02-21T23:50:33.018Z,-7.81
2018-02-21T23:51:32.995Z,-7.93
2018-02-21T23:52:33.228Z,-7.94
2018-02-21T23:53:33.206Z,-7.93
2018-02-21T23:54:32.925Z,-8.02
2018-02-21T23:55:33.157Z,-7.99
2018-02-21T23:56:33.142Z,-8.05
2018-02-21T23:57:33.110Z,-8.05
2018-02-21T23:58:32.826Z,-8.07
2018-02-21T23:59:32.806Z,-8.03
